Time;durP1;ratioP1;P1;durP2;ratioP2;P2;SDS_P1;SDS_P2;PMS_P1;PMS_P2;Temp;Humidity;BMP_temperature;BMP_pressure;BME280_temperature;BME280_humidity;BME280_pressure;Samples;Min_cycle;Max_cycle;Signal;HPM_P1;HPM_P2
2023/06/27 00:01:43;;;;;;;6.45;3.13;;;15.30;99.90;;;;;;4910101;28;20460;-88
2023/06/27 00:04:10;;;;;;;6.55;3.00;;;15.30;99.90;;;;;;4910573;29;20868;-92
2023/06/27 00:06:40;;;;;;;5.70;2.97;;;15.30;99.90;;;;;;4948828;29;20440;-88
2023/06/27 00:09:09;;;;;;;7.35;2.65;;;15.30;99.90;;;;;;4933388;28;20436;-86
2023/06/27 00:11:39;;;;;;;7.75;3.13;;;15.30;99.90;;;;;;4944389;29;20531;-87
2023/06/27 00:14:07;;;;;;;6.65;3.03;;;15.30;99.90;;;;;;4918278;29;20431;-87
2023/06/27 00:16:33;;;;;;;5.32;3.00;;;15.30;99.90;;;;;;4910392;28;20441;-88
2023/06/27 00:19:04;;;;;;;6.05;3.03;;;15.40;99.90;;;;;;4915579;29;20455;-89
2023/06/27 00:21:34;;;;;;;7.40;2.83;;;15.30;99.90;;;;;;4927829;28;20435;-88
2023/06/27 00:24:00;;;;;;;6.03;2.90;;;15.20;99.90;;;;;;4913399;29;20447;-83
2023/06/27 00:26:27;;;;;;;5.18;2.67;;;15.30;99.90;;;;;;4945712;29;20443;-89
2023/06/27 00:28:54;;;;;;;7.03;3.20;;;15.20;99.90;;;;;;4936782;28;20490;-85
2023/06/27 00:31:20;;;;;;;8.27;2.70;;;15.20;99.90;;;;;;4957465;28;20556;-83
2023/06/27 00:33:46;;;;;;;7.10;2.60;;;15.20;99.90;;;;;;4945234;28;20984;-88
2023/06/27 00:36:14;;;;;;;8.00;2.88;;;15.10;99.90;;;;;;4927958;29;20515;-86
2023/06/27 00:38:39;;;;;;;5.60;2.85;;;15.10;99.90;;;;;;4917060;28;20505;-88
2023/06/27 00:41:05;;;;;;;7.10;2.30;;;15.10;99.90;;;;;;4945278;28;20439;-82
2023/06/27 00:43:31;;;;;;;4.40;2.42;;;15.20;99.90;;;;;;4930868;28;20432;-82
2023/06/27 00:45:58;;;;;;;7.70;2.40;;;15.20;99.90;;;;;;4917441;28;20439;-85
2023/06/27 00:48:24;;;;;;;5.57;2.67;;;15.30;99.90;;;;;;4934711;28;20435;-85
2023/06/27 00:50:52;;;;;;;4.93;2.27;;;15.20;99.90;;;;;;4940339;28;20461;-86
2023/06/27 00:53:18;;;;;;;7.85;2.40;;;15.20;99.90;;;;;;4911977;28;20431;-87
2023/06/27 00:55:44;;;;;;;5.38;2.10;;;15.20;99.90;;;;;;4974007;28;20487;-83
2023/06/27 00:58:10;;;;;;;5.55;2.25;;;15.20;99.90;;;;;;4934202;28;20441;-91
2023/06/27 01:00:36;;;;;;;4.07;2.17;;;15.20;99.90;;;;;;4942877;28;20437;-81
2023/06/27 01:03:03;;;;;;;4.30;2.10;;;15.30;99.90;;;;;;4987939;23;20455;-88
2023/06/27 01:05:29;;;;;;;6.53;2.20;;;15.20;99.90;;;;;;4923309;28;20674;-86
2023/06/27 01:08:15;;;;;;;4.50;2.05;;;15.10;99.90;;;;;;4987050;28;20445;-86
2023/06/27 01:10:49;;;;;;;3.22;2.10;;;15.20;99.90;;;;;;4943671;28;20447;-91
2023/06/27 01:13:29;;;;;;;5.72;2.40;;;15.20;99.90;;;;;;4944218;28;20450;-82
2023/06/27 01:15:58;;;;;;;4.65;2.28;;;15.20;99.90;;;;;;4985954;28;21094;-85
2023/06/27 01:18:27;;;;;;;6.35;2.30;;;15.20;99.90;;;;;;4945999;29;20506;-85
2023/06/27 01:20:53;;;;;;;6.35;2.25;;;15.20;99.90;;;;;;4994465;28;20419;-91
2023/06/27 01:23:51;;;;;;;7.00;2.58;;;15.10;99.90;;;;;;4987662;28;20883;-90
2023/06/27 01:26:17;;;;;;;7.22;2.80;;;15.10;99.90;;;;;;4993210;28;20515;-86
2023/06/27 01:28:43;;;;;;;7.18;3.78;;;15.10;99.90;;;;;;5023649;28;20435;-88
2023/06/27 01:31:36;;;;;;;5.93;2.50;;;15.10;99.90;;;;;;4913428;29;20443;-90
2023/06/27 01:34:08;;;;;;;4.13;2.47;;;15.10;99.90;;;;;;4933225;28;20461;-89
2023/06/27 01:36:42;;;;;;;5.97;2.30;;;15.00;99.90;;;;;;4947653;28;20782;-86
2023/06/27 01:39:14;;;;;;;5.50;2.13;;;15.00;99.90;;;;;;5012208;28;20435;-90
2023/06/27 01:41:42;;;;;;;6.80;2.70;;;15.00;99.90;;;;;;4927516;29;20704;-89
2023/06/27 01:44:12;;;;;;;5.30;2.75;;;15.00;99.90;;;;;;5012994;28;20423;-88
2023/06/27 01:46:39;;;;;;;6.20;2.72;;;15.00;99.90;;;;;;4938447;28;20443;-82
2023/06/27 01:49:05;;;;;;;6.80;2.50;;;15.00;99.90;;;;;;4999182;28;20435;-86
2023/06/27 01:51:36;;;;;;;6.03;2.75;;;15.00;99.90;;;;;;4916382;29;20431;-90
2023/06/27 01:54:01;;;;;;;8.20;2.90;;;15.00;99.90;;;;;;4907019;29;20437;-85
2023/06/27 01:56:27;;;;;;;4.57;2.50;;;14.90;99.90;;;;;;5010633;28;20511;-89
2023/06/27 01:58:53;;;;;;;5.43;2.70;;;15.00;99.90;;;;;;5013454;28;20434;-85
2023/06/27 02:01:19;;;;;;;7.72;2.80;;;14.90;99.90;;;;;;5008347;28;20486;-84
2023/06/27 02:03:45;;;;;;;8.30;3.05;;;14.90;99.90;;;;;;4955603;29;20695;-88
2023/06/27 02:06:11;;;;;;;5.22;2.58;;;14.90;99.90;;;;;;4940196;28;20453;-92
2023/06/27 02:08:37;;;;;;;4.93;3.08;;;14.90;99.90;;;;;;4959891;28;20428;-85
2023/06/27 02:11:03;;;;;;;5.45;2.60;;;14.90;99.90;;;;;;4956887;28;20428;-83
2023/06/27 02:13:29;;;;;;;6.32;3.50;;;14.90;99.90;;;;;;4924863;29;21248;-84
2023/06/27 02:15:55;;;;;;;5.27;3.33;;;14.90;99.90;;;;;;4909301;29;20426;-86
2023/06/27 02:18:20;;;;;;;7.10;3.07;;;14.90;99.90;;;;;;4972415;28;20483;-89
2023/06/27 02:20:46;;;;;;;6.03;3.70;;;14.90;99.90;;;;;;4956884;28;20447;-88
2023/06/27 02:23:12;;;;;;;5.75;3.00;;;15.00;99.90;;;;;;4918450;28;20509;-88
2023/06/27 02:25:43;;;;;;;6.22;3.88;;;14.90;99.90;;;;;;4923991;28;20815;-86
2023/06/27 02:28:10;;;;;;;6.88;3.50;;;15.00;99.90;;;;;;4917015;28;20503;-90
2023/06/27 02:30:36;;;;;;;5.13;2.92;;;14.90;99.90;;;;;;4924923;29;20446;-87
2023/06/27 02:33:01;;;;;;;6.18;2.97;;;14.80;99.90;;;;;;4917528;28;20434;-88
2023/06/27 02:35:27;;;;;;;5.20;3.17;;;14.90;99.90;;;;;;4921647;28;20500;-88
2023/06/27 02:37:53;;;;;;;7.20;3.50;;;14.80;99.90;;;;;;4908409;28;20431;-87
2023/06/27 02:40:19;;;;;;;6.07;3.35;;;14.80;99.90;;;;;;4934300;29;20439;-88
2023/06/27 02:42:45;;;;;;;5.03;3.47;;;14.80;99.90;;;;;;4961158;28;20534;-90
2023/06/27 02:45:11;;;;;;;6.30;3.88;;;14.80;99.90;;;;;;4911182;29;20441;-93
2023/06/27 02:47:37;;;;;;;6.53;3.72;;;14.80;99.90;;;;;;4901889;28;20447;-89
2023/06/27 02:50:03;;;;;;;8.73;4.03;;;14.80;99.90;;;;;;4932388;28;20437;-88
2023/06/27 02:52:29;;;;;;;7.30;3.40;;;14.80;99.90;;;;;;4923206;29;20724;-88
2023/06/27 02:54:54;;;;;;;6.23;3.87;;;14.70;99.90;;;;;;4937057;28;20428;-87
2023/06/27 02:57:20;;;;;;;6.00;3.40;;;14.70;99.90;;;;;;5011538;28;20443;-89
2023/06/27 02:59:46;;;;;;;7.20;3.50;;;14.60;99.90;;;;;;4930684;28;20503;-88
2023/06/27 03:02:12;;;;;;;6.35;3.83;;;14.60;99.90;;;;;;4936066;29;20499;-86
2023/06/27 03:04:39;;;;;;;8.45;4.85;;;14.60;99.90;;;;;;4945868;28;20427;-88
2023/06/27 03:07:05;;;;;;;5.22;3.72;;;14.50;99.90;;;;;;4948023;28;20488;-86
2023/06/27 03:09:32;;;;;;;8.48;4.63;;;14.60;99.90;;;;;;4954851;29;20467;-83
2023/06/27 03:11:58;;;;;;;6.53;3.55;;;14.60;99.90;;;;;;4930185;29;20449;-88
2023/06/27 03:14:24;;;;;;;7.57;3.50;;;14.60;99.90;;;;;;4921040;29;20432;-84
2023/06/27 03:16:50;;;;;;;4.80;3.27;;;14.60;99.90;;;;;;4955454;28;20849;-87
2023/06/27 03:19:16;;;;;;;11.93;5.10;;;14.60;99.90;;;;;;4944201;29;20428;-84
2023/06/27 03:21:42;;;;;;;7.50;3.63;;;14.70;99.90;;;;;;4933694;28;20428;-87
2023/06/27 03:24:07;;;;;;;5.93;4.10;;;14.60;99.90;;;;;;4911829;28;20436;-83
2023/06/27 03:26:34;;;;;;;6.25;3.70;;;14.60;99.90;;;;;;4919132;29;20442;-87
2023/06/27 03:29:00;;;;;;;6.18;3.92;;;14.60;99.90;;;;;;4996638;28;20422;-83
2023/06/27 03:31:26;;;;;;;7.20;3.92;;;14.60;99.90;;;;;;5021120;28;20427;-87
2023/06/27 03:33:54;;;;;;;4.93;3.20;;;14.60;99.90;;;;;;4955169;28;20446;-86
2023/06/27 03:36:20;;;;;;;7.53;3.50;;;14.60;99.90;;;;;;4996213;28;20444;-83
2023/06/27 03:38:48;;;;;;;8.13;3.53;;;14.60;99.90;;;;;;5029771;28;20441;-86
2023/06/27 03:41:14;;;;;;;9.30;4.20;;;14.50;99.90;;;;;;4934050;29;20427;-85
2023/06/27 03:43:40;;;;;;;6.23;3.00;;;14.50;99.90;;;;;;4952505;29;20438;-87
2023/06/27 03:46:05;;;;;;;6.00;3.00;;;14.50;99.90;;;;;;4953368;28;20439;-86
2023/06/27 03:48:31;;;;;;;8.30;3.75;;;14.50;99.90;;;;;;4953238;28;20512;-82
2023/06/27 03:50:57;;;;;;;7.03;3.90;;;14.50;99.90;;;;;;4987238;28;20408;-88
2023/06/27 03:53:23;;;;;;;7.73;3.97;;;14.40;99.90;;;;;;4941171;28;20507;-82
2023/06/27 03:55:49;;;;;;;8.67;3.63;;;14.40;99.90;;;;;;4950873;28;20472;-82
2023/06/27 03:58:15;;;;;;;8.57;4.40;;;14.40;99.90;;;;;;4963846;28;20438;-86
2023/06/27 04:00:42;;;;;;;7.23;3.57;;;14.50;99.90;;;;;;4951547;28;20419;-93
2023/06/27 04:03:09;;;;;;;6.10;3.42;;;14.50;99.90;;;;;;4943476;28;20498;-89
2023/06/27 04:05:35;;;;;;;10.98;4.63;;;14.50;99.90;;;;;;4974499;28;20477;-90
2023/06/27 04:08:01;;;;;;;8.70;3.33;;;14.50;99.90;;;;;;5020982;28;20423;-90
2023/06/27 04:10:27;;;;;;;7.40;3.35;;;14.60;99.90;;;;;;4925074;28;20442;-91
2023/06/27 04:12:54;;;;;;;8.93;4.10;;;14.70;99.90;;;;;;4934362;28;20424;-86
2023/06/27 04:15:20;;;;;;;6.15;3.47;;;14.80;99.90;;;;;;4943851;29;20424;-90
2023/06/27 04:17:46;;;;;;;7.40;3.53;;;14.90;99.90;;;;;;4952713;29;20446;-89
2023/06/27 04:20:12;;;;;;;7.30;3.35;;;14.90;99.90;;;;;;5006124;28;20430;-91
2023/06/27 04:22:43;;;;;;;6.78;3.55;;;14.90;99.90;;;;;;4938225;29;20429;-91
2023/06/27 04:25:11;;;;;;;6.38;3.65;;;14.90;99.90;;;;;;4964787;28;20446;-92
2023/06/27 04:27:40;;;;;;;8.02;3.92;;;14.90;99.90;;;;;;4945297;28;20443;-89
2023/06/27 04:30:07;;;;;;;10.18;3.45;;;15.00;99.90;;;;;;5017908;28;20423;-92
2023/06/27 04:32:33;;;;;;;5.50;3.40;;;15.00;99.90;;;;;;5016889;28;20498;-87
2023/06/27 04:34:59;;;;;;;10.75;3.38;;;15.40;99.90;;;;;;4943580;29;20599;-84
2023/06/27 04:37:25;;;;;;;8.15;3.28;;;16.30;99.90;;;;;;5015186;28;20420;-92
2023/06/27 04:39:53;;;;;;;7.13;3.53;;;16.30;99.90;;;;;;4930324;28;20431;-92
2023/06/27 04:42:22;;;;;;;11.38;3.80;;;16.20;99.90;;;;;;4983268;28;20930;-89
2023/06/27 04:44:51;;;;;;;6.13;3.15;;;15.90;99.90;;;;;;4935723;28;20436;-87
2023/06/27 04:47:19;;;;;;;5.20;3.00;;;15.80;99.90;;;;;;4934098;29;20445;-87
2023/06/27 04:49:45;;;;;;;7.20;3.77;;;15.90;99.90;;;;;;5010542;28;20465;-86
2023/06/27 04:52:11;;;;;;;8.00;3.50;;;16.00;99.90;;;;;;4930113;29;20436;-92
2023/06/27 04:54:38;;;;;;;8.80;3.25;;;16.10;99.90;;;;;;5024902;28;20980;-89
2023/06/27 04:57:05;;;;;;;6.93;3.63;;;16.00;99.90;;;;;;4966390;28;20436;-83
2023/06/27 04:59:34;;;;;;;7.28;3.28;;;16.10;99.90;;;;;;4992479;28;20485;-81
2023/06/27 05:02:03;;;;;;;8.50;3.85;;;16.00;99.90;;;;;;4954756;28;20498;-88
2023/06/27 05:04:30;;;;;;;5.70;3.15;;;16.50;99.90;;;;;;4929230;29;20481;-88
2023/06/27 05:06:56;;;;;;;5.85;3.45;;;16.50;99.90;;;;;;4929170;29;20464;-90
2023/06/27 05:09:22;;;;;;;6.15;3.15;;;16.50;99.90;;;;;;4945444;28;20441;-83
2023/06/27 05:11:48;;;;;;;6.32;3.03;;;16.40;99.90;;;;;;4922649;28;20478;-84
2023/06/27 05:14:17;;;;;;;7.72;2.72;;;16.40;99.90;;;;;;4898026;28;20434;-87
2023/06/27 05:16:43;;;;;;;7.87;3.13;;;16.40;99.90;;;;;;4928062;28;20518;-83
2023/06/27 05:19:10;;;;;;;6.53;2.80;;;16.40;99.90;;;;;;4928127;29;20431;-86
2023/06/27 05:21:37;;;;;;;7.45;3.22;;;16.40;99.90;;;;;;4940821;29;20520;-85
2023/06/27 05:24:05;;;;;;;6.82;3.00;;;16.50;99.90;;;;;;4943899;28;20447;-87
2023/06/27 05:26:35;;;;;;;7.43;2.90;;;16.50;99.90;;;;;;4925204;29;20444;-86
2023/06/27 05:29:01;;;;;;;10.27;3.55;;;16.60;99.90;;;;;;4907860;29;20537;-90
2023/06/27 05:31:27;;;;;;;10.67;3.60;;;16.70;99.90;;;;;;4985932;28;20452;-87
2023/06/27 05:33:54;;;;;;;7.30;2.42;;;16.60;99.90;;;;;;4926325;28;20438;-83
2023/06/27 05:36:20;;;;;;;9.60;4.20;;;16.80;99.90;;;;;;4923216;29;20443;-88
2023/06/27 05:38:52;;;;;;;7.55;2.90;;;16.80;99.90;;;;;;4985787;28;20438;-91
2023/06/27 05:41:18;;;;;;;7.67;3.20;;;16.90;99.90;;;;;;4910080;29;20692;-88
2023/06/27 05:43:45;;;;;;;9.90;3.28;;;17.00;99.90;;;;;;4945096;28;20460;-87
2023/06/27 05:46:12;;;;;;;9.38;2.75;;;17.10;99.90;;;;;;4928109;29;20473;-93
2023/06/27 05:48:38;;;;;;;6.22;2.35;;;17.10;99.90;;;;;;4919812;28;20462;-90
2023/06/27 05:51:13;;;;;;;6.53;1.95;;;17.30;99.90;;;;;;4940983;28;20463;-91
2023/06/27 05:53:42;;;;;;;10.67;2.43;;;17.40;99.90;;;;;;4933730;28;20504;-91
2023/06/27 05:56:11;;;;;;;8.90;2.13;;;17.40;99.90;;;;;;4933341;29;20435;-90
2023/06/27 05:58:37;;;;;;;7.82;2.22;;;17.40;99.90;;;;;;4926356;29;20421;-85
2023/06/27 06:01:03;;;;;;;5.57;1.80;;;17.40;99.90;;;;;;4937618;29;20447;-87
2023/06/27 06:03:32;;;;;;;5.93;1.80;;;17.60;99.90;;;;;;4926142;28;20589;-88
2023/06/27 06:05:58;;;;;;;4.93;1.65;;;17.60;99.90;;;;;;4936803;28;20447;-85
2023/06/27 06:08:23;;;;;;;4.83;1.50;;;17.80;99.90;;;;;;4913047;29;20435;-84
2023/06/27 06:10:50;;;;;;;9.23;1.47;;;17.90;99.90;;;;;;4910752;29;20529;-86
2023/06/27 06:13:16;;;;;;;7.38;1.92;;;17.90;99.90;;;;;;4924738;28;20418;-86
2023/06/27 06:15:42;;;;;;;6.50;1.70;;;18.00;99.90;;;;;;4924772;29;20449;-86
2023/06/27 06:18:08;;;;;;;6.53;1.80;;;18.20;99.90;;;;;;4910092;29;20436;-87
2023/06/27 06:20:34;;;;;;;5.63;1.58;;;18.20;99.90;;;;;;4930325;29;20446;-87
2023/06/27 06:23:00;;;;;;;5.38;1.95;;;18.20;99.90;;;;;;4925832;29;20441;-88
2023/06/27 06:25:29;;;;;;;7.18;2.10;;;18.30;99.90;;;;;;4923762;29;20679;-84
2023/06/27 06:27:55;;;;;;;4.67;1.23;;;18.40;99.90;;;;;;4938315;29;20447;-84
2023/06/27 06:30:21;;;;;;;7.60;1.50;;;18.50;99.90;;;;;;4909445;29;20433;-87
2023/06/27 06:32:49;;;;;;;5.18;1.50;;;18.50;99.90;;;;;;4919089;28;20447;-85
2023/06/27 06:35:14;;;;;;;8.73;2.80;;;18.60;99.90;;;;;;4905237;28;20428;-84
2023/06/27 06:37:40;;;;;;;5.38;2.10;;;18.70;99.90;;;;;;4938368;28;20440;-88
2023/06/27 06:40:09;;;;;;;6.70;2.17;;;18.80;99.90;;;;;;4923644;28;20469;-83
2023/06/27 06:42:36;;;;;;;5.75;1.38;;;18.90;99.90;;;;;;4920749;29;20429;-85
2023/06/27 06:45:03;;;;;;;6.53;1.63;;;19.10;99.90;;;;;;4923780;29;20436;-84
2023/06/27 06:47:29;;;;;;;4.13;1.55;;;19.10;99.90;;;;;;4917482;29;21052;-84
2023/06/27 06:49:54;;;;;;;5.33;2.20;;;19.30;99.90;;;;;;4920360;29;20413;-84
2023/06/27 06:52:20;;;;;;;7.40;1.47;;;19.30;99.90;;;;;;4921725;29;20509;-84
2023/06/27 06:54:46;;;;;;;4.47;1.05;;;19.50;99.90;;;;;;4921623;29;20904;-81
2023/06/27 06:57:12;;;;;;;6.60;1.55;;;19.60;99.90;;;;;;4973210;28;20495;-89
2023/06/27 06:59:38;;;;;;;8.07;1.40;;;19.70;99.90;;;;;;4912501;29;20441;-84
2023/06/27 07:02:04;;;;;;;5.60;1.25;;;19.70;99.90;;;;;;4931434;29;20460;-86
2023/06/27 07:04:29;;;;;;;7.70;1.75;;;19.70;99.90;;;;;;4919392;29;20421;-83
2023/06/27 07:06:55;;;;;;;4.53;1.05;;;20.10;99.90;;;;;;4918263;28;20485;-84
2023/06/27 07:09:21;;;;;;;4.20;1.00;;;20.50;99.90;;;;;;5009450;28;20424;-82
2023/06/27 07:11:50;;;;;;;5.20;1.73;;;21.80;99.90;;;;;;4941158;28;20482;-84
2023/06/27 07:14:17;;;;;;;7.10;1.98;;;20.70;99.90;;;;;;4920066;29;20429;-81
2023/06/27 07:16:44;;;;;;;5.88;1.30;;;21.60;99.90;;;;;;4920883;29;20452;-83
2023/06/27 07:19:10;;;;;;;8.25;1.90;;;21.60;99.90;;;;;;4999681;28;20496;-83
2023/06/27 07:21:37;;;;;;;7.00;1.60;;;22.00;99.90;;;;;;4906358;29;20460;-83
2023/06/27 07:24:06;;;;;;;5.20;1.35;;;22.80;99.90;;;;;;4921104;29;20426;-83
2023/06/27 07:26:32;;;;;;;8.00;1.30;;;23.60;99.90;;;;;;4919134;29;20441;-85
2023/06/27 07:28:58;;;;;;;7.45;1.50;;;23.50;99.90;;;;;;4921369;29;20429;-83
2023/06/27 07:31:24;;;;;;;5.43;1.15;;;23.70;99.90;;;;;;4916157;29;20847;-79
2023/06/27 07:33:50;;;;;;;6.82;1.52;;;23.50;99.90;;;;;;4915415;29;20493;-82
2023/06/27 07:36:18;;;;;;;8.40;2.25;;;23.00;99.90;;;;;;4917909;29;20456;-82
2023/06/27 07:38:44;;;;;;;5.43;1.38;;;22.50;99.90;;;;;;4917173;28;20464;-81
2023/06/27 07:41:10;;;;;;;4.18;1.48;;;21.60;99.90;;;;;;4916967;29;20425;-80
2023/06/27 07:43:35;;;;;;;3.97;0.98;;;21.70;99.90;;;;;;4916996;29;20465;-81
2023/06/27 07:46:04;;;;;;;4.90;1.10;;;21.10;99.90;;;;;;4902827;29;20521;-82
2023/06/27 07:48:30;;;;;;;6.63;1.88;;;21.10;99.90;;;;;;4911991;28;20876;-82
2023/06/27 07:50:56;;;;;;;5.45;1.80;;;20.60;99.90;;;;;;4897606;29;20455;-85
2023/06/27 07:53:30;;;;;;;6.17;2.13;;;20.60;99.90;;;;;;4923291;28;20441;-85
2023/06/27 07:55:58;;;;;;;6.78;1.58;;;20.70;99.90;;;;;;4904104;29;20480;-79
2023/06/27 07:58:24;;;;;;;4.45;1.80;;;20.70;99.90;;;;;;4919237;29;20435;-84
2023/06/27 08:00:54;;;;;;;4.85;1.73;;;20.60;99.90;;;;;;4887665;28;20567;-86
2023/06/27 08:03:31;;;;;;;6.60;1.55;;;20.60;99.90;;;;;;4901752;29;20435;-86
2023/06/27 08:06:06;;;;;;;5.35;1.27;;;20.70;99.90;;;;;;4919533;29;20536;-85
2023/06/27 08:08:41;;;;;;;9.63;1.73;;;20.60;99.90;;;;;;4920191;28;20448;-85
2023/06/27 08:11:22;;;;;;;5.67;1.53;;;20.80;99.90;;;;;;4928328;28;20437;-86
2023/06/27 08:13:59;;;;;;;7.50;2.42;;;20.80;99.90;;;;;;4904953;28;20469;-83
2023/06/27 08:16:36;;;;;;;8.00;1.67;;;21.00;99.90;;;;;;4920711;29;20479;-85
2023/06/27 08:21:54;;;;;;;3.05;1.00;;;21.20;99.90;;;;;;4900002;29;20424;-85
2023/06/27 08:24:22;;;;;;;6.17;1.20;;;21.40;99.90;;;;;;4919729;29;20439;-85
2023/06/27 08:27:06;;;;;;;4.88;1.05;;;21.60;99.90;;;;;;4895597;29;20449;-84
2023/06/27 08:29:33;;;;;;;8.48;1.20;;;21.80;99.90;;;;;;4920851;29;20483;-87
2023/06/27 08:31:59;;;;;;;8.85;1.98;;;21.60;99.90;;;;;;4903565;29;20436;-82
2023/06/27 08:34:31;;;;;;;6.10;1.20;;;21.60;99.90;;;;;;4918245;29;20947;-82
2023/06/27 08:36:58;;;;;;;6.50;1.50;;;21.40;99.90;;;;;;4923132;28;20951;-77
2023/06/27 08:39:25;;;;;;;10.77;2.30;;;21.30;99.90;;;;;;4917256;28;20445;-83
2023/06/27 08:41:50;;;;;;;5.95;1.75;;;21.60;99.90;;;;;;4920971;29;20453;-81
2023/06/27 08:44:16;;;;;;;6.20;1.92;;;21.90;99.90;;;;;;4922007;29;20413;-83
2023/06/27 08:46:44;;;;;;;4.47;1.23;;;22.20;99.90;;;;;;4921618;28;20449;-84
2023/06/27 08:49:18;;;;;;;8.40;1.30;;;22.20;99.90;;;;;;4923070;29;20424;-83
2023/06/27 08:51:48;;;;;;;4.70;1.40;;;22.20;99.90;;;;;;4922290;29;20461;-79
2023/06/27 08:54:34;;;;;;;5.35;1.23;;;22.40;99.90;;;;;;4914263;29;20499;-79
2023/06/27 08:57:02;;;;;;;3.92;1.17;;;22.10;99.90;;;;;;4921649;29;20434;-82
2023/06/27 08:59:33;;;;;;;5.40;1.40;;;22.00;99.90;;;;;;4914620;29;20437;-80
2023/06/27 09:02:00;;;;;;;5.25;1.30;;;22.00;99.90;;;;;;4927150;29;20516;-80
2023/06/27 09:04:27;;;;;;;5.32;1.23;;;21.90;99.90;;;;;;4933840;29;20435;-78
2023/06/27 09:06:54;;;;;;;7.43;1.30;;;21.70;99.90;;;;;;4933669;28;20466;-81
2023/06/27 09:09:21;;;;;;;3.53;1.20;;;21.50;99.90;;;;;;4936456;28;20466;-82
2023/06/27 09:11:50;;;;;;;5.60;1.53;;;21.20;99.90;;;;;;4935529;29;20427;-80
2023/06/27 09:14:16;;;;;;;4.10;1.15;;;21.20;99.90;;;;;;4928470;29;20863;-81
2023/06/27 09:16:42;;;;;;;4.80;1.48;;;21.40;99.90;;;;;;4932881;28;20475;-81
2023/06/27 09:19:08;;;;;;;7.00;2.15;;;21.40;99.90;;;;;;4937415;28;20459;-83
2023/06/27 09:21:34;;;;;;;6.85;1.58;;;21.30;99.90;;;;;;4937489;28;20979;-82
2023/06/27 09:24:07;;;;;;;7.55;2.35;;;21.50;99.90;;;;;;4950072;28;20435;-85
2023/06/27 09:26:39;;;;;;;4.78;1.27;;;21.20;99.90;;;;;;4911764;28;20452;-87
2023/06/27 09:29:05;;;;;;;6.85;2.00;;;21.50;99.90;;;;;;4998410;28;20431;-87
2023/06/27 09:31:34;;;;;;;7.90;1.60;;;21.60;99.90;;;;;;4950000;28;20438;-85
2023/06/27 09:34:09;;;;;;;5.65;1.40;;;21.60;99.90;;;;;;4952216;29;20419;-84
2023/06/27 09:36:39;;;;;;;6.73;1.37;;;21.40;99.90;;;;;;4948792;28;20404;-85
2023/06/27 09:39:10;;;;;;;4.88;1.10;;;21.30;99.90;;;;;;4970278;28;20458;-80
2023/06/27 09:41:46;;;;;;;5.03;1.17;;;21.10;99.90;;;;;;4951594;28;20413;-83
2023/06/27 09:44:18;;;;;;;4.63;1.10;;;21.50;99.90;;;;;;4935338;28;20402;-86
2023/06/27 09:46:45;;;;;;;4.17;1.00;;;21.70;99.90;;;;;;5002045;28;20455;-87
2023/06/27 09:49:24;;;;;;;4.65;1.25;;;21.30;99.90;;;;;;4934035;29;20411;-87
2023/06/27 09:51:50;;;;;;;5.05;1.13;;;21.30;99.90;;;;;;4921839;28;20948;-85
2023/06/27 09:54:25;;;;;;;5.50;1.20;;;21.40;99.90;;;;;;4943512;29;20596;-86
2023/06/27 09:57:01;;;;;;;5.55;1.60;;;21.50;99.90;;;;;;4941475;29;20432;-86
2023/06/27 09:59:29;;;;;;;4.18;1.20;;;21.70;99.90;;;;;;4913310;28;20542;-85
2023/06/27 10:01:55;;;;;;;5.30;1.33;;;21.60;99.90;;;;;;4939470;28;20426;-87
2023/06/27 10:04:35;;;;;;;6.75;1.60;;;21.70;99.90;;;;;;4995862;28;20427;-88
2023/06/27 10:07:13;;;;;;;4.40;0.90;;;21.90;99.90;;;;;;4990321;28;20465;-87
2023/06/27 10:09:54;;;;;;;5.75;1.13;;;21.90;99.90;;;;;;4928324;29;20436;-87
2023/06/27 10:12:23;;;;;;;9.15;2.58;;;21.60;99.90;;;;;;4938173;29;20436;-86
2023/06/27 10:15:08;;;;;;;8.15;2.10;;;21.80;99.90;;;;;;4945484;29;20431;-86
2023/06/27 10:17:36;;;;;;;5.78;2.25;;;21.90;99.90;;;;;;4990703;28;20444;-80
2023/06/27 10:20:04;;;;;;;4.93;1.08;;;22.00;99.90;;;;;;4939328;28;20438;-80
2023/06/27 10:22:32;;;;;;;5.28;1.90;;;22.40;99.90;;;;;;4940926;29;20429;-82
2023/06/27 10:25:04;;;;;;;4.97;1.35;;;22.20;99.90;;;;;;4990343;28;20602;-79
2023/06/27 10:27:38;;;;;;;8.88;2.05;;;21.90;99.90;;;;;;5000943;28;20446;-83
2023/06/27 10:30:24;;;;;;;6.07;1.45;;;22.00;99.90;;;;;;4940222;29;20447;-81
2023/06/27 10:32:49;;;;;;;6.25;1.35;;;22.40;99.90;;;;;;4931745;29;20433;-82
2023/06/27 10:35:26;;;;;;;3.80;1.63;;;22.30;99.90;;;;;;4932730;29;20821;-83
2023/06/27 10:38:09;;;;;;;6.78;2.33;;;22.70;99.90;;;;;;4986111;28;20434;-83
2023/06/27 10:40:58;;;;;;;5.63;1.77;;;22.80;99.90;;;;;;4920760;28;20442;-77
2023/06/27 10:43:45;;;;;;;3.65;1.27;;;22.70;99.90;;;;;;4918253;28;20431;-84
2023/06/27 10:46:22;;;;;;;4.68;1.55;;;22.20;99.90;;;;;;4929523;29;20440;-82
2023/06/27 10:49:04;;;;;;;5.68;1.30;;;22.00;99.90;;;;;;4931913;29;20936;-81
2023/06/27 10:51:51;;;;;;;6.13;0.90;;;22.60;99.90;;;;;;4914957;28;20450;-82
2023/06/27 10:54:18;;;;;;;4.28;1.50;;;22.50;99.90;;;;;;4951084;29;20968;-79
2023/06/27 10:57:33;;;;;;;9.10;1.60;;;22.30;99.90;;;;;;4991176;28;20438;-92
2023/06/27 11:00:17;;;;;;;4.60;1.88;;;22.20;99.90;;;;;;4935168;28;20593;-89
2023/06/27 11:02:46;;;;;;;5.50;1.53;;;22.20;99.90;;;;;;4927833;29;20438;-88
2023/06/27 11:08:30;;;;;;;4.60;1.65;;;22.20;99.90;;;;;;4959543;28;20431;-87
2023/06/27 11:10:59;;;;;;;5.07;1.30;;;22.20;99.90;;;;;;4944195;29;20443;-87
2023/06/27 11:13:31;;;;;;;5.37;1.10;;;22.70;99.90;;;;;;4943401;28;20432;-89
2023/06/27 11:16:16;;;;;;;3.78;1.40;;;22.80;99.90;;;;;;4930386;29;20618;-88
2023/06/27 11:18:52;;;;;;;6.93;1.33;;;22.40;99.90;;;;;;4905419;29;20922;-88
2023/06/27 11:21:49;;;;;;;6.28;1.40;;;22.30;99.90;;;;;;4930689;28;20427;-91
2023/06/27 11:24:16;;;;;;;5.32;1.25;;;22.30;99.90;;;;;;4940629;29;20438;-79
2023/06/27 11:27:14;;;;;;;8.13;1.90;;;22.40;99.90;;;;;;5019328;28;20424;-91
2023/06/27 11:30:04;;;;;;;4.10;1.57;;;22.30;99.90;;;;;;4929033;28;20424;-90
2023/06/27 11:32:36;;;;;;;3.83;1.10;;;22.10;99.90;;;;;;4928224;29;20410;-89
2023/06/27 11:35:11;;;;;;;7.55;1.70;;;21.90;99.90;;;;;;4926288;28;20424;-88
2023/06/27 11:37:43;;;;;;;8.25;2.00;;;22.10;99.90;;;;;;4902310;29;20769;-89
2023/06/27 11:40:29;;;;;;;7.68;1.48;;;22.50;99.90;;;;;;4929409;28;20426;-91
2023/06/27 11:43:27;;;;;;;3.70;1.10;;;22.60;99.90;;;;;;4927041;28;20425;-92
2023/06/27 11:46:10;;;;;;;5.57;1.40;;;22.70;99.90;;;;;;4896019;29;20441;-91
2023/06/27 11:49:13;;;;;;;;;;;;;;;;;;;;;
2023/06/27 11:55:35;;;;;;;10.80;1.92;;;22.90;99.90;;;;;;4925952;29;20960;-86
2023/06/27 11:58:50;;;;;;;7.45;2.30;;;22.60;99.90;;;;;;4921118;29;20453;-89
2023/06/27 12:01:37;;;;;;;;;;;;;;;;;;;;;
2023/06/27 12:04:29;;;;;;;3.97;1.10;;;22.60;99.90;;;;;;5011403;28;20426;-92
2023/06/27 12:07:25;;;;;;;4.28;1.35;;;22.30;99.90;;;;;;4992324;28;20430;-87
2023/06/27 12:10:07;;;;;;;6.77;1.40;;;22.90;99.90;;;;;;4993439;28;20437;-89
2023/06/27 12:13:00;;;;;;;4.60;1.02;;;22.70;99.90;;;;;;5008999;28;20403;-89
2023/06/27 12:15:29;;;;;;;4.53;1.02;;;22.60;99.90;;;;;;4976690;28;20583;-89
2023/06/27 12:18:08;;;;;;;4.70;0.95;;;22.50;99.90;;;;;;4991473;28;20419;-87
2023/06/27 12:21:02;;;;;;;5.05;0.88;;;22.40;99.90;;;;;;4989025;28;20420;-89
2023/06/27 12:23:55;;;;;;;4.55;1.35;;;22.60;99.90;;;;;;4961055;28;20564;-93
2023/06/27 12:26:44;;;;;;;5.32;1.30;;;22.60;99.90;;;;;;5008060;28;20493;-89
2023/06/27 12:29:28;;;;;;;2.75;0.80;;;22.90;99.90;;;;;;4984016;28;20450;-93
2023/06/27 12:32:44;;;;;;;4.15;1.00;;;22.70;99.90;;;;;;5009117;28;20445;-87
2023/06/27 12:39:26;;;;;;;2.60;0.75;;;22.30;99.90;;;;;;5015091;28;20404;-88
2023/06/27 12:42:12;;;;;;;4.60;1.65;;;22.40;99.90;;;;;;4992929;28;20437;-90
2023/06/27 12:44:44;;;;;;;6.50;1.10;;;22.50;99.90;;;;;;5005714;28;20416;-87
2023/06/27 12:47:10;;;;;;;3.20;1.05;;;22.30;99.90;;;;;;5006466;28;20442;-91
2023/06/27 12:49:39;;;;;;;4.13;1.40;;;22.30;99.90;;;;;;5016860;28;20460;-86
2023/06/27 12:52:28;;;;;;;4.47;0.98;;;22.30;99.90;;;;;;5027930;28;20498;-87
2023/06/27 12:55:00;;;;;;;6.38;1.63;;;22.10;99.90;;;;;;5004316;28;20410;-88
2023/06/27 12:57:43;;;;;;;3.55;0.90;;;22.50;99.90;;;;;;5008139;28;20996;-87
2023/06/27 13:00:22;;;;;;;3.33;1.20;;;22.40;99.90;;;;;;4990593;28;20426;-86
2023/06/27 13:02:49;;;;;;;4.90;1.65;;;22.20;99.90;;;;;;4992705;28;20448;-86
2023/06/27 13:05:39;;;;;;;3.50;1.90;;;22.20;99.90;;;;;;4917369;29;20511;-89
2023/06/27 13:08:13;;;;;;;3.30;0.75;;;22.60;99.90;;;;;;4930774;29;20412;-87
2023/06/27 13:10:39;;;;;;;3.30;1.10;;;22.30;99.90;;;;;;4939917;29;20499;-88
2023/06/27 13:13:36;;;;;;;7.07;1.20;;;22.00;99.90;;;;;;4910106;29;20440;-91
2023/06/27 13:17:05;;;;;;;;;;;;;;;;;;;;;
2023/06/27 13:19:33;;;;;;;7.30;1.67;;;22.10;99.90;;;;;;4931952;29;21091;-90
2023/06/27 13:22:35;;;;;;;;;;;;;;;;;;;;;
2023/06/27 13:26:01;;;;;;;7.38;1.38;;;22.00;99.90;;;;;;4952317;28;20498;-85